Time;durP1;ratioP1;P1;durP2;ratioP2;P2;SDS_P1;SDS_P2;PMS_P1;PMS_P2;Temp;Humidity;BMP_temperature;BMP_pressure;BME280_temperature;BME280_humidity;BME280_pressure;Samples;Min_cycle;Max_cycle;Signal;HPM_P1;HPM_P2
2021/08/06 00:00:24;;;;;;;;;;;20.80;64.30;;;;;;5006241;28;19928;-57
2021/08/06 00:02:49;;;;;;;;;;;20.80;64.30;;;;;;5017255;28;19975;-58
2021/08/06 00:05:15;;;;;;;;;;;20.70;64.30;;;;;;5018486;28;19918;-58
2021/08/06 00:07:40;;;;;;;;;;;20.80;64.40;;;;;;5019279;28;20397;-58
2021/08/06 00:10:06;;;;;;;;;;;20.80;64.50;;;;;;5020784;28;19921;-58
2021/08/06 00:12:31;;;;;;;;;;;20.70;64.50;;;;;;5022160;28;20395;-56
2021/08/06 00:14:57;;;;;;;;;;;20.80;64.60;;;;;;5022780;28;20075;-55
2021/08/06 00:17:22;;;;;;;;;;;20.80;64.60;;;;;;5022408;28;19917;-56
2021/08/06 00:19:48;;;;;;;;;;;20.80;64.60;;;;;;5020501;28;19925;-54
2021/08/06 00:22:13;;;;;;;;;;;20.80;64.60;;;;;;5023682;28;20622;-57
2021/08/06 00:24:38;;;;;;;;;;;20.80;64.60;;;;;;5022587;28;19917;-55
2021/08/06 00:27:04;;;;;;;;;;;20.80;64.70;;;;;;5022565;28;19982;-54
2021/08/06 00:29:29;;;;;;;;;;;20.70;64.60;;;;;;5022487;28;19949;-54
2021/08/06 00:31:55;;;;;;;;;;;20.70;64.60;;;;;;5022711;28;19963;-57
2021/08/06 00:34:20;;;;;;;;;;;20.70;64.70;;;;;;5023433;28;20746;-58
2021/08/06 00:36:46;;;;;;;;;;;20.70;64.70;;;;;;5022345;28;19913;-55
2021/08/06 00:39:11;;;;;;;;;;;20.70;64.80;;;;;;5022480;28;19917;-57
2021/08/06 00:41:37;;;;;;;;;;;20.70;64.80;;;;;;5022584;28;20562;-58
2021/08/06 00:44:03;;;;;;;;;;;20.70;65.00;;;;;;5022272;28;19919;-57
2021/08/06 00:46:28;;;;;;;;;;;20.70;64.70;;;;;;5020920;28;20374;-56
2021/08/06 00:48:54;;;;;;;;;;;20.70;64.70;;;;;;5021801;28;19924;-57
2021/08/06 00:51:19;;;;;;;;;;;20.70;64.80;;;;;;5021958;28;19921;-56
2021/08/06 00:53:44;;;;;;;;;;;20.70;64.90;;;;;;5019457;28;20147;-55
2021/08/06 00:56:10;;;;;;;;;;;20.70;64.90;;;;;;5020895;28;19913;-55
2021/08/06 00:58:36;;;;;;;;;;;20.70;65.00;;;;;;5020868;28;20004;-58
2021/08/06 01:01:01;;;;;;;;;;;20.70;65.00;;;;;;5020387;28;19913;-57
2021/08/06 01:03:27;;;;;;;;;;;20.70;65.10;;;;;;5021362;28;19917;-56
2021/08/06 01:06:10;;;;;;;;;;;20.70;65.00;;;;;;5020349;28;19996;-55
2021/08/06 01:08:40;;;;;;;;;;;20.70;65.00;;;;;;5019836;28;20300;-55
2021/08/06 01:11:06;;;;;;;;;;;20.70;65.00;;;;;;5021625;28;19918;-58
2021/08/06 01:13:44;;;;;;;;;;;20.70;65.00;;;;;;5019377;28;19917;-57
2021/08/06 01:16:09;;;;;;;;;;;20.70;65.00;;;;;;5021323;28;20404;-56
2021/08/06 01:18:35;;;;;;;;;;;20.80;65.00;;;;;;5020392;28;19913;-56
2021/08/06 01:21:09;;;;;;;;;;;20.70;65.00;;;;;;5019901;28;20378;-58
2021/08/06 01:23:35;;;;;;;;;;;20.70;65.10;;;;;;5021273;28;20033;-56
2021/08/06 01:26:02;;;;;;;;;;;20.70;65.10;;;;;;5020973;28;19921;-56
2021/08/06 01:28:30;;;;;;;;;;;20.70;65.10;;;;;;5020289;28;19917;-54
2021/08/06 01:30:55;;;;;;;;;;;20.70;65.10;;;;;;5019261;28;19928;-57
2021/08/06 01:33:21;;;;;;;;;;;20.70;65.20;;;;;;5021333;28;19917;-54
2021/08/06 01:35:46;;;;;;;;;;;20.70;65.30;;;;;;5019248;28;20784;-57
2021/08/06 01:38:12;;;;;;;;;;;20.70;66.00;;;;;;5018999;28;19920;-56
2021/08/06 01:40:44;;;;;;;;;;;20.70;65.40;;;;;;5020780;28;19949;-57
2021/08/06 01:43:12;;;;;;;;;;;20.70;65.30;;;;;;5020823;28;20819;-56
2021/08/06 01:45:39;;;;;;;;;;;20.70;65.40;;;;;;5021153;28;19917;-58
2021/08/06 01:48:05;;;;;;;;;;;20.70;65.40;;;;;;5019091;28;19967;-58
2021/08/06 01:50:33;;;;;;;;;;;20.70;65.50;;;;;;5002139;28;19929;-58
2021/08/06 01:53:00;;;;;;;;;;;20.70;65.40;;;;;;5019662;28;19925;-58
2021/08/06 01:55:28;;;;;;;;;;;20.70;65.50;;;;;;5020937;28;19927;-57
2021/08/06 01:57:53;;;;;;;;;;;20.70;65.50;;;;;;5019150;28;20008;-60
2021/08/06 02:00:19;;;;;;;;;;;20.70;65.50;;;;;;5019279;28;19919;-59
2021/08/06 02:02:44;;;;;;;;;;;20.70;65.50;;;;;;5019889;28;20024;-59
2021/08/06 02:05:10;;;;;;;;;;;20.70;65.60;;;;;;5018711;28;19917;-59
2021/08/06 02:07:36;;;;;;;;;;;20.70;65.50;;;;;;5017944;28;19940;-61
2021/08/06 02:10:01;;;;;;;;;;;20.70;65.40;;;;;;5020408;28;19917;-61
2021/08/06 02:12:27;;;;;;;;;;;20.70;65.40;;;;;;5020261;28;20082;-58
2021/08/06 02:14:52;;;;;;;;;;;20.60;65.30;;;;;;5021311;28;19962;-57
2021/08/06 02:17:18;;;;;;;;;;;20.70;65.30;;;;;;5020098;28;19920;-56
2021/08/06 02:19:43;;;;;;;;;;;20.60;65.30;;;;;;5021238;28;19913;-56
2021/08/06 02:22:09;;;;;;;;;;;20.70;65.20;;;;;;5019734;28;19917;-55
2021/08/06 02:24:34;;;;;;;;;;;20.60;65.20;;;;;;5021050;28;19921;-56
2021/08/06 02:27:00;;;;;;;;;;;20.60;65.10;;;;;;5003826;28;19913;-57
2021/08/06 02:29:26;;;;;;;;;;;20.60;65.10;;;;;;5018952;28;20299;-58
2021/08/06 02:31:51;;;;;;;;;;;20.60;65.00;;;;;;5019665;28;19927;-56
2021/08/06 02:34:17;;;;;;;;;;;20.60;64.90;;;;;;5019953;28;19928;-57
2021/08/06 02:36:43;;;;;;;;;;;20.60;64.80;;;;;;5020459;28;19924;-56
2021/08/06 02:39:14;;;;;;;;;;;20.60;64.90;;;;;;5019582;28;19913;-56
2021/08/06 02:41:39;;;;;;;;;;;20.60;64.90;;;;;;5021073;28;20000;-56
2021/08/06 02:44:06;;;;;;;;;;;20.60;64.80;;;;;;5021342;28;19944;-55
2021/08/06 02:46:32;;;;;;;;;;;20.60;64.80;;;;;;5020305;28;19913;-57
2021/08/06 02:48:57;;;;;;;;;;;20.60;64.70;;;;;;5020440;28;19924;-57
2021/08/06 02:51:23;;;;;;;;;;;20.60;64.70;;;;;;5020819;28;19971;-56
2021/08/06 02:53:48;;;;;;;;;;;20.60;64.70;;;;;;5019521;28;19925;-56
2021/08/06 02:56:13;;;;;;;;;;;20.60;64.50;;;;;;5021708;28;19913;-56
2021/08/06 02:58:39;;;;;;;;;;;20.50;64.40;;;;;;5018475;28;19924;-55
2021/08/06 03:01:04;;;;;;;;;;;20.50;64.40;;;;;;5020521;28;20910;-54
2021/08/06 03:03:30;;;;;;;;;;;20.50;64.30;;;;;;5020902;28;19980;-55
2021/08/06 03:05:55;;;;;;;;;;;20.50;64.30;;;;;;5019781;28;19924;-57
2021/08/06 03:08:21;;;;;;;;;;;20.50;64.20;;;;;;5017082;28;20516;-57
2021/08/06 03:10:46;;;;;;;;;;;20.50;64.20;;;;;;5021251;28;19924;-57
2021/08/06 03:13:12;;;;;;;;;;;20.60;64.20;;;;;;5020930;28;19918;-56
2021/08/06 03:15:37;;;;;;;;;;;20.50;64.00;;;;;;5020996;28;19921;-57
2021/08/06 03:18:03;;;;;;;;;;;20.50;64.00;;;;;;5023910;28;20290;-57
2021/08/06 03:20:28;;;;;;;;;;;20.50;63.80;;;;;;5023884;28;19920;-55
2021/08/06 03:22:54;;;;;;;;;;;20.50;63.90;;;;;;5022433;28;20193;-56
2021/08/06 03:25:19;;;;;;;;;;;20.50;63.80;;;;;;5023511;28;19917;-56
2021/08/06 03:27:44;;;;;;;;;;;20.50;63.90;;;;;;5023499;28;19921;-57
2021/08/06 03:30:11;;;;;;;;;;;20.50;63.90;;;;;;5021248;28;20081;-58
2021/08/06 03:32:36;;;;;;;;;;;20.50;63.90;;;;;;5021598;28;20348;-56
2021/08/06 03:35:02;;;;;;;;;;;20.50;63.80;;;;;;5024765;28;19913;-57
2021/08/06 03:37:27;;;;;;;;;;;20.50;63.80;;;;;;5022615;28;20317;-57
2021/08/06 03:39:53;;;;;;;;;;;20.50;63.80;;;;;;5023881;28;19944;-58
2021/08/06 03:42:18;;;;;;;;;;;20.50;63.70;;;;;;5020898;28;20002;-56
2021/08/06 03:44:44;;;;;;;;;;;20.50;63.80;;;;;;5023607;28;19914;-57
2021/08/06 03:47:09;;;;;;;;;;;20.50;63.60;;;;;;5022852;28;19944;-54
2021/08/06 03:49:35;;;;;;;;;;;20.50;63.60;;;;;;5022496;28;20540;-56
2021/08/06 03:52:00;;;;;;;;;;;20.50;63.50;;;;;;5022163;28;19921;-58
2021/08/06 03:54:26;;;;;;;;;;;20.50;63.40;;;;;;5021406;28;20412;-59
2021/08/06 03:56:51;;;;;;;;;;;20.40;63.40;;;;;;5021197;28;19913;-59
2021/08/06 03:59:17;;;;;;;;;;;20.40;63.30;;;;;;5023381;28;19925;-57
2021/08/06 04:01:42;;;;;;;;;;;20.40;63.30;;;;;;5023497;28;19975;-58
2021/08/06 04:04:08;;;;;;;;;;;20.40;63.30;;;;;;5022834;28;20595;-57
2021/08/06 04:06:33;;;;;;;;;;;20.40;63.20;;;;;;5022976;28;19914;-58
2021/08/06 04:08:59;;;;;;;;;;;20.40;63.20;;;;;;5011454;28;19913;-58
2021/08/06 04:11:24;;;;;;;;;;;20.40;63.20;;;;;;5022587;28;19921;-55
2021/08/06 04:13:50;;;;;;;;;;;20.40;63.30;;;;;;5024160;28;19917;-55
2021/08/06 04:16:15;;;;;;;;;;;20.40;63.20;;;;;;5023772;28;19984;-56
2021/08/06 04:18:41;;;;;;;;;;;20.40;63.30;;;;;;5023327;28;19925;-59
2021/08/06 04:21:06;;;;;;;;;;;20.40;63.40;;;;;;5023262;28;19925;-57
2021/08/06 04:23:32;;;;;;;;;;;20.40;63.30;;;;;;5023515;28;19946;-58
2021/08/06 04:25:57;;;;;;;;;;;20.40;63.40;;;;;;5023186;28;19917;-57
2021/08/06 04:28:22;;;;;;;;;;;20.40;63.30;;;;;;5022045;28;19917;-59
2021/08/06 04:30:48;;;;;;;;;;;20.40;63.30;;;;;;5024441;28;19978;-58
2021/08/06 04:33:13;;;;;;;;;;;20.40;63.30;;;;;;5023217;28;19913;-59
2021/08/06 04:35:39;;;;;;;;;;;20.40;63.30;;;;;;5022972;28;19974;-56
2021/08/06 04:38:04;;;;;;;;;;;20.40;63.30;;;;;;5022255;28;19928;-59
2021/08/06 04:40:30;;;;;;;;;;;20.40;63.30;;;;;;5023394;28;20503;-57
2021/08/06 04:42:55;;;;;;;;;;;20.40;63.30;;;;;;5021765;28;19913;-56
2021/08/06 04:45:21;;;;;;;;;;;20.40;63.30;;;;;;5022616;28;20443;-57
2021/08/06 04:47:47;;;;;;;;;;;20.40;63.30;;;;;;5021541;28;20628;-57
2021/08/06 04:50:12;;;;;;;;;;;20.40;63.30;;;;;;5022618;28;19952;-59
2021/08/06 04:52:38;;;;;;;;;;;20.40;63.40;;;;;;5023073;28;20330;-58
2021/08/06 04:55:04;;;;;;;;;;;20.40;63.40;;;;;;5022649;28;19917;-59
2021/08/06 04:57:29;;;;;;;;;;;20.30;63.40;;;;;;5021956;28;19917;-57
2021/08/06 04:59:54;;;;;;;;;;;20.40;63.50;;;;;;5020859;28;19921;-59
2021/08/06 05:02:20;;;;;;;;;;;20.30;63.60;;;;;;5022879;28;19917;-56
2021/08/06 05:04:45;;;;;;;;;;;20.40;63.70;;;;;;5022767;28;20480;-58
2021/08/06 05:07:17;;;;;;;;;;;20.40;63.80;;;;;;5022472;28;20136;-54
2021/08/06 05:09:46;;;;;;;;;;;20.40;64.00;;;;;;5017530;28;20024;-58
2021/08/06 05:12:12;;;;;;;;;;;20.40;64.30;;;;;;5022173;28;19923;-58
2021/08/06 05:14:37;;;;;;;;;;;20.40;64.20;;;;;;5022484;28;19917;-57
2021/08/06 05:17:03;;;;;;;;;;;20.30;64.20;;;;;;5022289;28;19917;-58
2021/08/06 05:19:28;;;;;;;;;;;20.30;64.30;;;;;;5020608;28;19921;-59
2021/08/06 05:21:53;;;;;;;;;;;20.30;64.40;;;;;;5020521;28;19921;-59
2021/08/06 05:24:19;;;;;;;;;;;20.30;64.80;;;;;;5023086;28;20452;-59
2021/08/06 05:26:44;;;;;;;;;;;20.30;64.50;;;;;;5022666;28;19917;-55
2021/08/06 05:29:10;;;;;;;;;;;20.40;64.70;;;;;;5022275;28;19917;-57
2021/08/06 05:31:35;;;;;;;;;;;20.40;64.80;;;;;;5022486;28;19975;-56
2021/08/06 05:34:01;;;;;;;;;;;20.40;64.90;;;;;;5022957;28;20397;-56
2021/08/06 05:36:26;;;;;;;;;;;20.40;65.00;;;;;;5022499;28;19917;-57
2021/08/06 05:38:51;;;;;;;;;;;20.40;65.00;;;;;;5022435;28;19944;-56
2021/08/06 05:41:17;;;;;;;;;;;20.40;65.10;;;;;;5021447;28;19924;-56
2021/08/06 05:43:42;;;;;;;;;;;20.40;65.20;;;;;;5020275;28;20382;-57
2021/08/06 05:46:08;;;;;;;;;;;20.40;65.20;;;;;;5022402;28;19921;-57
2021/08/06 05:48:33;;;;;;;;;;;20.40;65.30;;;;;;5020819;28;19936;-57
2021/08/06 05:50:59;;;;;;;;;;;20.30;65.30;;;;;;5021547;28;19917;-55
2021/08/06 05:53:24;;;;;;;;;;;20.40;65.50;;;;;;5019754;28;20297;-57
2021/08/06 05:55:50;;;;;;;;;;;20.40;65.50;;;;;;5044726;23;19928;-59
2021/08/06 05:58:15;;;;;;;;;;;20.30;65.50;;;;;;5041056;28;19936;-59
2021/08/06 06:00:41;;;;;;;;;;;20.30;65.50;;;;;;5061108;28;19920;-59
2021/08/06 06:03:06;;;;;;;;;;;20.30;66.10;;;;;;5062086;28;20117;-60
2021/08/06 06:05:32;;;;;;;;;;;20.30;65.50;;;;;;5061736;28;20120;-60
2021/08/06 06:07:57;;;;;;;;;;;20.40;65.70;;;;;;5061691;28;19923;-60
2021/08/06 06:10:22;;;;;;;;;;;20.30;65.70;;;;;;5057155;28;19917;-60
2021/08/06 06:12:48;;;;;;;;;;;20.30;65.80;;;;;;5061138;28;20394;-59
2021/08/06 06:15:14;;;;;;;;;;;20.40;65.90;;;;;;5061811;28;19916;-60
2021/08/06 06:17:39;;;;;;;;;;;20.30;65.90;;;;;;5060195;28;19912;-60
2021/08/06 06:20:05;;;;;;;;;;;20.30;66.00;;;;;;5061654;28;19913;-60
2021/08/06 06:22:30;;;;;;;;;;;20.30;66.10;;;;;;5059538;28;19978;-59
2021/08/06 06:24:56;;;;;;;;;;;20.30;66.10;;;;;;5062583;28;19923;-60
2021/08/06 06:27:21;;;;;;;;;;;20.30;66.10;;;;;;5061983;28;19916;-60
2021/08/06 06:29:47;;;;;;;;;;;20.30;66.20;;;;;;5061266;28;19924;-59
2021/08/06 06:32:12;;;;;;;;;;;20.30;66.20;;;;;;5062388;28;20039;-60
2021/08/06 06:34:38;;;;;;;;;;;20.30;66.20;;;;;;5061686;28;20457;-60
2021/08/06 06:37:03;;;;;;;;;;;20.30;66.30;;;;;;5061558;28;19913;-59
2021/08/06 06:39:28;;;;;;;;;;;20.30;66.40;;;;;;5061368;28;20050;-59
2021/08/06 06:41:54;;;;;;;;;;;20.30;66.40;;;;;;5061088;28;20380;-60
2021/08/06 06:44:19;;;;;;;;;;;20.30;66.30;;;;;;5059762;28;19940;-60
2021/08/06 06:46:45;;;;;;;;;;;20.30;66.40;;;;;;5060867;28;19958;-60
2021/08/06 06:49:10;;;;;;;;;;;20.30;66.40;;;;;;5060447;28;19916;-61
2021/08/06 06:51:36;;;;;;;;;;;20.30;66.50;;;;;;5061032;28;19943;-59
2021/08/06 06:54:01;;;;;;;;;;;20.30;66.40;;;;;;5065125;28;19923;-60
2021/08/06 06:56:27;;;;;;;;;;;20.30;66.50;;;;;;5064706;28;19921;-58
2021/08/06 06:58:53;;;;;;;;;;;20.30;66.50;;;;;;5062250;28;19921;-59
2021/08/06 07:01:18;;;;;;;;;;;20.30;66.50;;;;;;5052239;28;19928;-59
2021/08/06 07:03:44;;;;;;;;;;;20.30;66.60;;;;;;5044946;28;19913;-57
2021/08/06 07:06:09;;;;;;;;;;;20.30;66.60;;;;;;5050920;28;19921;-59
2021/08/06 07:08:35;;;;;;;;;;;20.30;66.70;;;;;;5039546;28;19917;-58
2021/08/06 07:11:00;;;;;;;;;;;20.30;66.60;;;;;;5044824;28;19921;-60
2021/08/06 07:13:26;;;;;;;;;;;20.30;66.60;;;;;;5044746;28;19916;-59
2021/08/06 07:15:51;;;;;;;;;;;20.30;66.70;;;;;;5045194;28;19971;-59
2021/08/06 07:18:17;;;;;;;;;;;20.30;66.70;;;;;;5043612;28;19917;-60
2021/08/06 07:20:42;;;;;;;;;;;20.30;66.70;;;;;;5044807;28;20405;-58
2021/08/06 07:23:08;;;;;;;;;;;20.30;66.80;;;;;;5045549;28;19951;-60
2021/08/06 07:25:33;;;;;;;;;;;20.30;66.70;;;;;;5045139;28;19913;-60
2021/08/06 07:27:58;;;;;;;;;;;20.30;66.80;;;;;;5043995;28;20007;-59
2021/08/06 07:30:24;;;;;;;;;;;20.30;66.80;;;;;;5045427;28;19912;-58
2021/08/06 07:32:50;;;;;;;;;;;20.30;66.80;;;;;;5045623;28;19969;-59
2021/08/06 07:35:16;;;;;;;;;;;20.30;66.80;;;;;;5045077;28;20713;-59
2021/08/06 07:37:42;;;;;;;;;;;20.30;66.80;;;;;;5043985;28;20356;-58
2021/08/06 07:40:07;;;;;;;;;;;20.30;66.90;;;;;;5045069;28;20020;-58
2021/08/06 07:42:33;;;;;;;;;;;20.30;67.00;;;;;;5044261;28;20301;-58
2021/08/06 07:44:58;;;;;;;;;;;20.30;66.90;;;;;;5044867;28;19968;-52
2021/08/06 07:47:24;;;;;;;;;;;20.30;66.90;;;;;;5045638;28;20396;-59
2021/08/06 07:49:49;;;;;;;;;;;20.30;66.90;;;;;;5044755;28;19917;-63
2021/08/06 07:52:15;;;;;;;;;;;20.30;67.00;;;;;;5045782;28;19979;-62
2021/08/06 07:54:40;;;;;;;;;;;20.30;67.00;;;;;;5045435;28;19921;-58
2021/08/06 07:57:06;;;;;;;;;;;20.30;67.00;;;;;;5045444;28;20607;-59
2021/08/06 07:59:31;;;;;;;;;;;20.30;67.00;;;;;;5045745;28;19975;-60
2021/08/06 08:01:57;;;;;;;;;;;20.30;67.20;;;;;;5045933;28;19913;-59
2021/08/06 08:04:22;;;;;;;;;;;20.30;67.10;;;;;;5044671;28;19917;-59
2021/08/06 08:06:47;;;;;;;;;;;20.30;67.20;;;;;;5045442;28;19966;-59
2021/08/06 08:09:13;;;;;;;;;;;20.20;67.20;;;;;;5041391;28;19968;-60
2021/08/06 08:11:39;;;;;;;;;;;20.30;67.30;;;;;;5045179;28;20027;-60
2021/08/06 08:14:04;;;;;;;;;;;20.20;67.30;;;;;;5045234;28;20378;-60
2021/08/06 08:16:29;;;;;;;;;;;20.30;67.40;;;;;;5045434;28;19917;-60
2021/08/06 08:18:55;;;;;;;;;;;20.30;67.40;;;;;;5044020;28;19924;-59
2021/08/06 08:21:20;;;;;;;;;;;20.20;67.40;;;;;;5044166;28;20436;-58
2021/08/06 08:23:46;;;;;;;;;;;20.20;67.40;;;;;;5045031;28;19917;-60
2021/08/06 08:26:11;;;;;;;;;;;20.20;67.30;;;;;;5044683;28;20442;-60
2021/08/06 08:28:37;;;;;;;;;;;20.20;67.20;;;;;;5044374;28;19948;-59
2021/08/06 08:31:02;;;;;;;;;;;20.20;67.30;;;;;;5044805;28;20007;-60
2021/08/06 08:33:27;;;;;;;;;;;20.20;67.40;;;;;;5045105;28;19917;-60
2021/08/06 08:35:53;;;;;;;;;;;20.20;67.30;;;;;;5043996;28;20389;-58
2021/08/06 08:38:18;;;;;;;;;;;20.20;67.20;;;;;;5042077;28;20127;-58
2021/08/06 08:40:44;;;;;;;;;;;20.30;67.20;;;;;;5043705;28;19941;-59
2021/08/06 08:43:09;;;;;;;;;;;20.30;67.30;;;;;;5043688;28;19917;-59
2021/08/06 08:45:39;;;;;;;;;;;20.30;67.40;;;;;;5043928;28;19913;-60
2021/08/06 08:48:04;;;;;;;;;;;20.20;67.40;;;;;;5043583;28;20428;-59
2021/08/06 08:50:30;;;;;;;;;;;20.20;67.30;;;;;;5043123;28;19919;-59
2021/08/06 08:52:55;;;;;;;;;;;20.20;67.30;;;;;;5043017;28;20374;-60
2021/08/06 08:55:21;;;;;;;;;;;20.30;67.30;;;;;;5043418;28;19920;-57
2021/08/06 08:57:46;;;;;;;;;;;20.30;67.20;;;;;;5043344;28;19923;-60
2021/08/06 09:00:15;;;;;;;;;;;20.30;67.20;;;;;;5043597;28;19992;-58
2021/08/06 09:02:40;;;;;;;;;;;20.20;67.00;;;;;;5043857;28;20462;-57
2021/08/06 09:05:09;;;;;;;;;;;20.20;67.10;;;;;;5043538;28;19959;-57
2021/08/06 09:07:34;;;;;;;;;;;20.30;67.20;;;;;;5043824;28;19913;-60
2021/08/06 09:10:19;;;;;;;;;;;20.20;67.20;;;;;;5040898;28;19924;-59
2021/08/06 09:12:54;;;;;;;;;;;20.30;67.20;;;;;;5043681;28;19970;-59
2021/08/06 09:15:39;;;;;;;;;;;20.20;67.10;;;;;;5043730;28;19917;-58
2021/08/06 09:18:17;;;;;;;;;;;20.20;67.20;;;;;;5043614;28;20278;-60
2021/08/06 09:20:42;;;;;;;;;;;20.20;67.10;;;;;;5041673;28;21677;-59
2021/08/06 09:23:08;;;;;;;;;;;20.20;67.10;;;;;;5043862;28;19917;-59
2021/08/06 09:25:36;;;;;;;;;;;20.30;67.20;;;;;;5044145;28;19923;-59
2021/08/06 09:28:02;;;;;;;;;;;20.30;67.30;;;;;;5043801;28;19967;-59
2021/08/06 09:30:37;;;;;;;;;;;20.30;67.50;;;;;;5043666;28;19953;-59
2021/08/06 09:33:03;;;;;;;;;;;20.30;67.60;;;;;;5043573;28;20003;-59
2021/08/06 09:35:29;;;;;;;;;;;20.30;67.40;;;;;;5043387;28;20004;-58
2021/08/06 09:37:55;;;;;;;;;;;20.30;67.40;;;;;;5043163;28;20644;-59
2021/08/06 09:40:21;;;;;;;;;;;20.30;67.40;;;;;;5043463;28;19927;-56
2021/08/06 09:42:51;;;;;;;;;;;20.20;67.20;;;;;;5043563;28;19920;-58
2021/08/06 09:45:16;;;;;;;;;;;20.20;67.10;;;;;;5043434;28;20004;-60
2021/08/06 09:47:45;;;;;;;;;;;20.20;67.00;;;;;;5042883;28;20003;-57
2021/08/06 09:50:15;;;;;;;;;;;20.30;67.20;;;;;;5043187;28;20439;-59
2021/08/06 09:52:41;;;;;;;;;;;20.30;67.80;;;;;;5041368;28;19921;-58
2021/08/06 09:55:07;;;;;;;;;;;20.20;67.20;;;;;;5043098;28;20301;-57
2021/08/06 09:57:32;;;;;;;;;;;20.30;67.20;;;;;;5043662;28;19923;-57
2021/08/06 09:59:58;;;;;;;;;;;20.30;67.20;;;;;;5042577;28;19959;-59
2021/08/06 10:02:25;;;;;;;;;;;20.30;67.20;;;;;;5042479;28;19913;-60
2021/08/06 10:05:04;;;;;;;;;;;20.20;67.10;;;;;;5042549;28;19920;-60
2021/08/06 10:07:31;;;;;;;;;;;20.30;67.30;;;;;;5042418;28;19917;-59
2021/08/06 10:09:57;;;;;;;;;;;20.30;67.20;;;;;;5036625;28;20482;-59
2021/08/06 10:12:22;;;;;;;;;;;20.30;67.10;;;;;;5042973;28;19921;-60
2021/08/06 10:14:48;;;;;;;;;;;20.30;67.10;;;;;;5043118;28;20305;-59
2021/08/06 10:17:13;;;;;;;;;;;20.30;67.20;;;;;;5042831;28;19913;-58
2021/08/06 10:19:39;;;;;;;;;;;20.20;67.10;;;;;;5042643;28;20619;-59
2021/08/06 10:22:05;;;;;;;;;;;20.30;67.70;;;;;;5042781;28;19913;-58
2021/08/06 10:24:30;;;;;;;;;;;20.30;67.20;;;;;;5042868;28;19925;-58
2021/08/06 10:26:56;;;;;;;;;;;20.30;67.10;;;;;;5042285;28;20267;-58
2021/08/06 10:29:21;;;;;;;;;;;20.30;67.10;;;;;;5040575;28;19917;-59
2021/08/06 10:32:06;;;;;;;;;;;20.30;67.20;;;;;;5042278;28;20004;-59
2021/08/06 10:34:31;;;;;;;;;;;20.30;67.20;;;;;;5042279;28;19916;-58
2021/08/06 10:36:56;;;;;;;;;;;20.30;67.20;;;;;;5042945;28;19923;-59
2021/08/06 10:39:29;;;;;;;;;;;20.30;67.20;;;;;;5042321;28;19924;-57
2021/08/06 10:41:54;;;;;;;;;;;20.30;67.30;;;;;;5042132;28;20044;-57
2021/08/06 10:44:20;;;;;;;;;;;20.30;67.20;;;;;;5042397;28;20027;-58
2021/08/06 10:46:49;;;;;;;;;;;20.30;67.20;;;;;;5040409;28;19917;-58
2021/08/06 10:49:14;;;;;;;;;;;20.30;67.30;;;;;;5041879;28;20028;-60
2021/08/06 10:51:40;;;;;;;;;;;20.30;67.10;;;;;;5042269;28;20609;-58
2021/08/06 10:54:05;;;;;;;;;;;20.30;67.20;;;;;;5041116;28;19913;-58
2021/08/06 10:56:34;;;;;;;;;;;20.30;67.10;;;;;;5040874;28;19925;-60
2021/08/06 10:59:05;;;;;;;;;;;20.30;67.20;;;;;;5040994;28;19928;-59
2021/08/06 11:01:37;;;;;;;;;;;20.30;67.30;;;;;;5041989;28;19920;-60
2021/08/06 11:04:05;;;;;;;;;;;20.30;67.40;;;;;;5047248;28;19913;-59
2021/08/06 11:06:41;;;;;;;;;;;20.30;67.40;;;;;;5040517;28;19948;-60
2021/08/06 11:09:27;;;;;;;;;;;20.30;67.40;;;;;;5041572;28;19928;-58
2021/08/06 11:11:52;;;;;;;;;;;20.30;67.50;;;;;;5040861;28;19952;-58
2021/08/06 11:14:38;;;;;;;;;;;20.30;67.50;;;;;;5041794;28;20641;-59
2021/08/06 11:17:06;;;;;;;;;;;20.30;67.40;;;;;;5042140;28;19960;-58
2021/08/06 11:19:34;;;;;;;;;;;20.30;67.40;;;;;;5039472;28;19956;-58
2021/08/06 11:22:00;;;;;;;;;;;20.30;67.40;;;;;;5041503;28;19917;-59
2021/08/06 11:24:26;;;;;;;;;;;20.30;67.40;;;;;;5041718;28;19967;-59
2021/08/06 11:26:52;;;;;;;;;;;20.30;67.30;;;;;;5041930;28;19948;-58
2021/08/06 11:29:17;;;;;;;;;;;20.40;67.50;;;;;;5039604;28;19936;-59
2021/08/06 11:31:43;;;;;;;;;;;20.40;67.60;;;;;;5041831;28;20308;-58
2021/08/06 11:34:08;;;;;;;;;;;20.40;67.50;;;;;;5042593;28;19920;-60
2021/08/06 11:36:34;;;;;;;;;;;20.40;67.50;;;;;;5041934;28;20003;-58
2021/08/06 11:39:10;;;;;;;;;;;20.40;67.50;;;;;;5044107;28;19955;-59
2021/08/06 11:41:44;;;;;;;;;;;20.40;67.40;;;;;;5045938;28;19962;-60
2021/08/06 11:44:09;;;;;;;;;;;20.40;67.30;;;;;;5045548;28;20732;-56
2021/08/06 11:46:35;;;;;;;;;;;20.40;67.30;;;;;;5045901;28;19917;-60
2021/08/06 11:49:00;;;;;;;;;;;20.40;67.40;;;;;;5044908;28;20649;-59
2021/08/06 11:51:26;;;;;;;;;;;20.40;67.50;;;;;;5043576;28;19974;-58
2021/08/06 11:53:51;;;;;;;;;;;20.40;67.50;;;;;;5044532;28;19912;-60
2021/08/06 11:56:17;;;;;;;;;;;20.40;67.60;;;;;;5057787;23;19933;-60
2021/08/06 11:58:43;;;;;;;;;;;20.40;67.60;;;;;;5022658;28;19921;-61
2021/08/06 12:01:09;;;;;;;;;;;20.40;67.60;;;;;;5009458;28;19917;-59
2021/08/06 12:03:47;;;;;;;;;;;20.40;67.70;;;;;;5004122;28;19917;-60
2021/08/06 12:06:15;;;;;;;;;;;20.40;67.80;;;;;;5024308;28;20417;-61
2021/08/06 12:08:41;;;;;;;;;;;20.40;67.80;;;;;;5025535;28;19971;-60
2021/08/06 12:11:06;;;;;;;;;;;20.40;67.90;;;;;;5020771;28;19921;-60
2021/08/06 12:13:46;;;;;;;;;;;20.50;68.10;;;;;;5024735;28;19953;-60
2021/08/06 12:16:13;;;;;;;;;;;20.40;67.70;;;;;;5024956;28;19913;-60
2021/08/06 12:18:39;;;;;;;;;;;20.50;68.30;;;;;;5024648;28;19924;-61
2021/08/06 12:21:07;;;;;;;;;;;20.40;68.30;;;;;;5025213;28;20388;-59
2021/08/06 12:23:32;;;;;;;;;;;20.50;68.50;;;;;;5025072;28;19981;-58
2021/08/06 12:26:00;;;;;;;;;;;20.50;68.60;;;;;;5023210;28;19913;-60
2021/08/06 12:28:26;;;;;;;;;;;20.50;68.60;;;;;;5024394;28;19917;-59
2021/08/06 12:30:57;;;;;;;;;;;20.50;68.70;;;;;;5024699;28;19917;-60
2021/08/06 12:33:23;;;;;;;;;;;20.40;68.70;;;;;;5023202;28;19928;-60
2021/08/06 12:35:48;;;;;;;;;;;20.50;68.70;;;;;;5024770;28;19917;-60
2021/08/06 12:38:23;;;;;;;;;;;20.50;68.80;;;;;;5024863;28;19948;-60
2021/08/06 12:40:48;;;;;;;;;;;20.50;68.80;;;;;;5022915;28;20792;-59
2021/08/06 12:43:17;;;;;;;;;;;20.50;68.80;;;;;;5025235;28;19956;-59
2021/08/06 12:45:42;;;;;;;;;;;20.50;69.00;;;;;;5024494;28;19917;-61
2021/08/06 12:48:08;;;;;;;;;;;20.50;68.90;;;;;;5024327;28;19920;-61
2021/08/06 12:50:33;;;;;;;;;;;20.50;68.90;;;;;;5023748;28;20414;-61
2021/08/06 12:53:02;;;;;;;;;;;20.50;68.80;;;;;;5024309;28;19921;-60
2021/08/06 12:55:28;;;;;;;;;;;20.50;68.80;;;;;;5024052;28;19927;-60
2021/08/06 12:58:00;;;;;;;;;;;20.50;68.70;;;;;;5024226;28;20294;-60
2021/08/06 13:00:38;;;;;;;;;;;20.50;68.60;;;;;;5024392;28;19975;-60
2021/08/06 13:03:05;;;;;;;;;;;20.60;68.70;;;;;;5024106;28;19924;-59
2021/08/06 13:05:31;;;;;;;;;;;20.50;68.70;;;;;;5023728;28;20441;-60
2021/08/06 13:08:08;;;;;;;;;;;20.60;68.80;;;;;;5022203;28;19975;-60
2021/08/06 13:10:33;;;;;;;;;;;20.60;68.80;;;;;;5011942;28;19913;-57
2021/08/06 13:12:59;;;;;;;;;;;20.50;68.80;;;;;;5024056;28;19923;-61
2021/08/06 13:15:24;;;;;;;;;;;20.60;69.00;;;;;;5023742;28;19957;-60
2021/08/06 13:17:50;;;;;;;;;;;20.50;69.00;;;;;;5023575;28;19948;-61
2021/08/06 13:20:15;;;;;;;;;;;20.50;69.10;;;;;;5022732;28;19913;-58
2021/08/06 13:22:41;;;;;;;;;;;20.60;69.20;;;;;;5022547;28;20375;-60
2021/08/06 13:25:07;;;;;;;;;;;20.60;69.30;;;;;;5018984;28;19921;-60
2021/08/06 13:27:33;;;;;;;;;;;20.60;69.20;;;;;;5023714;28;19921;-61
2021/08/06 13:29:59;;;;;;;;;;;20.60;69.20;;;;;;5022030;28;20421;-59
2021/08/06 13:32:25;;;;;;;;;;;20.60;69.20;;;;;;5022288;28;19920;-60
2021/08/06 13:34:50;;;;;;;;;;;20.60;69.20;;;;;;5023578;28;19928;-58
2021/08/06 13:37:16;;;;;;;;;;;20.60;69.20;;;;;;5024206;28;19913;-61
2021/08/06 13:39:41;;;;;;;;;;;20.60;69.00;;;;;;5022186;28;19917;-61
2021/08/06 13:42:07;;;;;;;;;;;20.60;69.10;;;;;;5023864;28;19928;-60
2021/08/06 13:44:32;;;;;;;;;;;20.60;68.90;;;;;;5023665;28;19913;-61
2021/08/06 13:46:58;;;;;;;;;;;20.60;69.00;;;;;;5023338;28;19913;-61
2021/08/06 13:49:23;;;;;;;;;;;20.60;69.10;;;;;;5022883;28;19921;-60
2021/08/06 13:51:50;;;;;;;;;;;20.60;69.00;;;;;;5023775;28;20457;-59
2021/08/06 13:54:16;;;;;;;;;;;20.60;68.90;;;;;;5023466;28;20614;-57
2021/08/06 13:56:41;;;;;;;;;;;20.70;68.80;;;;;;5023185;28;19922;-60
2021/08/06 13:59:07;;;;;;;;;;;20.60;68.80;;;;;;5023019;28;19924;-60
2021/08/06 14:01:32;;;;;;;;;;;20.70;68.90;;;;;;5022451;28;19975;-60
2021/08/06 14:03:58;;;;;;;;;;;20.70;68.90;;;;;;5023140;28;20469;-59
2021/08/06 14:06:23;;;;;;;;;;;20.60;68.70;;;;;;5022170;28;19924;-61
2021/08/06 14:08:49;;;;;;;;;;;20.70;68.70;;;;;;5023251;28;19917;-60
2021/08/06 14:11:14;;;;;;;;;;;20.70;68.60;;;;;;5022830;28;19917;-61